createdAt,value
2023-05-09T00:01:15.361Z,64.73
2023-05-09T00:03:42.217Z,65.39
2023-05-09T00:06:09.874Z,64.26
2023-05-09T00:08:36.790Z,64.17
2023-05-09T00:11:03.757Z,64.89
2023-05-09T00:13:30.339Z,65.48
2023-05-09T00:15:56.997Z,65.48
2023-05-09T00:18:27.130Z,65.27
2023-05-09T00:20:54.038Z,64.57
2023-05-09T00:23:20.826Z,65.48
2023-05-09T00:25:47.624Z,65.08
2023-05-09T00:28:14.345Z,64.72
2023-05-09T00:30:41.001Z,66.88
2023-05-09T00:33:07.708Z,66.31
2023-05-09T00:35:38.469Z,66.35
2023-05-09T00:38:08.193Z,66.90
2023-05-09T00:40:34.962Z,66.48
2023-05-09T00:43:01.613Z,67.45
2023-05-09T00:45:28.280Z,65.86
2023-05-09T00:47:55.885Z,67.31
2023-05-09T00:50:22.744Z,66.76
2023-05-09T00:52:50.433Z,66.57
2023-05-09T00:55:18.574Z,65.90
2023-05-09T00:57:48.330Z,66.40
2023-05-09T01:00:16.439Z,67.72
2023-05-09T01:02:53.254Z,67.55
2023-05-09T01:05:20.858Z,67.92
2023-05-09T01:08:03.284Z,67.52
2023-05-09T01:10:57.113Z,66.68
2023-05-09T01:13:44.594Z,67.39
2023-05-09T01:16:26.472Z,67.11
2023-05-09T01:19:08.063Z,67.19
2023-05-09T01:21:38.139Z,67.02
2023-05-09T01:24:19.905Z,67.28
2023-05-09T01:27:20.223Z,68.13
2023-05-09T01:30:00.115Z,67.48
2023-05-09T01:32:29.041Z,67.02
2023-05-09T01:35:02.157Z,68.26
2023-05-09T01:37:34.418Z,66.97
2023-05-09T01:40:06.889Z,67.97
2023-05-09T01:43:08.890Z,68.68
2023-05-09T01:45:37.467Z,68.15
2023-05-09T01:48:05.517Z,68.20
2023-05-09T01:50:36.038Z,68.44
2023-05-09T01:53:05.939Z,68.94
2023-05-09T01:55:35.613Z,69.11
2023-05-09T01:58:04.447Z,68.40
2023-05-09T02:00:34.712Z,68.69
2023-05-09T02:03:03.931Z,69.16
2023-05-09T02:05:32.579Z,68.73
2023-05-09T02:08:00.253Z,67.74
2023-05-09T02:10:31.203Z,68.33
2023-05-09T02:12:57.938Z,68.79
2023-05-09T02:15:30.248Z,67.87
2023-05-09T02:17:56.997Z,68.99
2023-05-09T02:20:26.685Z,67.63
2023-05-09T02:22:53.419Z,68.63
2023-05-09T02:25:20.332Z,68.08
2023-05-09T02:27:51.446Z,67.36
2023-05-09T02:30:21.685Z,68.78
2023-05-09T02:32:50.574Z,68.23
2023-05-09T02:35:18.424Z,68.98
2023-05-09T02:37:45.783Z,67.70
2023-05-09T02:40:14.747Z,67.66
2023-05-09T02:42:41.641Z,67.83
2023-05-09T02:45:08.812Z,68.20
2023-05-09T02:47:35.507Z,67.84
2023-05-09T02:50:02.445Z,67.81
2023-05-09T02:52:29.122Z,68.08
2023-05-09T02:54:55.822Z,67.50
2023-05-09T02:57:22.692Z,68.70
2023-05-09T02:59:50.546Z,68.43
2023-05-09T03:02:17.313Z,68.05
2023-05-09T03:04:44.126Z,68.23
2023-05-09T03:07:10.955Z,68.42
2023-05-09T03:09:39.285Z,67.98
2023-05-09T03:12:08.187Z,68.90
2023-05-09T03:14:34.864Z,67.98
2023-05-09T03:17:01.426Z,68.06
2023-05-09T03:19:28.122Z,69.09
2023-05-09T03:21:54.800Z,69.40
2023-05-09T03:24:22.014Z,69.47
2023-05-09T03:26:48.710Z,68.47
2023-05-09T03:29:18.031Z,68.54
2023-05-09T03:31:44.795Z,68.21
2023-05-09T03:34:12.030Z,68.69
2023-05-09T03:36:38.742Z,69.07
2023-05-09T03:39:05.410Z,69.14
2023-05-09T03:41:32.271Z,68.48
2023-05-09T03:43:59.011Z,67.55
2023-05-09T03:46:26.002Z,68.42
2023-05-09T03:48:52.846Z,67.38
2023-05-09T03:51:19.902Z,68.37
2023-05-09T03:53:53.598Z,67.57
2023-05-09T03:56:22.628Z,67.85
2023-05-09T03:58:49.597Z,67.56
2023-05-09T04:01:16.291Z,66.67
2023-05-09T04:03:43.203Z,65.65
2023-05-09T04:06:10.457Z,66.11
2023-05-09T04:08:37.225Z,66.09
2023-05-09T04:11:03.880Z,66.81
2023-05-09T04:13:30.652Z,66.42
2023-05-09T04:15:57.369Z,65.35
2023-05-09T04:18:24.157Z,65.58
2023-05-09T04:20:50.932Z,65.61
2023-05-09T04:23:17.704Z,64.17
2023-05-09T04:25:44.356Z,64.78
2023-05-09T04:28:11.144Z,63.81
2023-05-09T04:30:37.982Z,64.86
2023-05-09T04:33:07.345Z,64.95
2023-05-09T04:35:34.136Z,64.80
2023-05-09T04:38:00.889Z,62.87
2023-05-09T04:40:27.634Z,63.49
2023-05-09T04:42:54.724Z,63.51
2023-05-09T04:45:21.528Z,62.66
2023-05-09T04:47:48.140Z,61.75
2023-05-09T04:50:14.821Z,60.89
2023-05-09T04:52:41.650Z,61.72
2023-05-09T04:55:08.607Z,60.68
2023-05-09T04:57:35.316Z,60.36
2023-05-09T05:00:02.008Z,59.67
2023-05-09T05:02:28.697Z,59.58
2023-05-09T05:05:06.222Z,59.26
2023-05-09T05:07:37.987Z,59.08
2023-05-09T05:10:05.038Z,58.31
2023-05-09T05:12:31.829Z,59.12
2023-05-09T05:14:58.541Z,58.53
2023-05-09T05:17:25.583Z,57.37
2023-05-09T05:19:52.181Z,57.07
2023-05-09T05:22:18.802Z,56.84
2023-05-09T05:24:45.415Z,56.84
2023-05-09T05:27:14.464Z,55.68
2023-05-09T05:29:41.141Z,54.90
2023-05-09T05:32:07.761Z,54.49
2023-05-09T05:34:34.422Z,53.38
2023-05-09T05:37:01.059Z,53.47
2023-05-09T05:39:27.894Z,53.21
2023-05-09T05:41:54.574Z,52.98
2023-05-09T05:44:21.230Z,52.11
2023-05-09T05:46:48.105Z,52.88
2023-05-09T05:49:21.901Z,51.54
2023-05-09T05:51:48.668Z,51.06
2023-05-09T05:54:22.584Z,49.64
2023-05-09T05:56:49.239Z,49.58
2023-05-09T05:59:15.875Z,48.92
2023-05-09T06:01:42.513Z,49.60
2023-05-09T06:04:09.417Z,49.72
2023-05-09T06:06:36.327Z,49.63
2023-05-09T06:09:03.025Z,48.34
2023-05-09T06:11:29.823Z,48.34
2023-05-09T06:13:56.495Z,48.87
2023-05-09T06:16:23.264Z,47.85
2023-05-09T06:18:50.658Z,48.06
2023-05-09T06:21:17.819Z,47.89
2023-05-09T06:24:01.536Z,46.68
2023-05-09T06:26:31.298Z,47.79
2023-05-09T06:28:58.319Z,45.43
2023-05-09T06:31:25.915Z,46.87
2023-05-09T06:33:52.899Z,45.12
2023-05-09T06:36:19.898Z,45.86
2023-05-09T06:38:46.730Z,45.31
2023-05-09T06:41:13.443Z,44.98
2023-05-09T06:43:40.170Z,43.34
2023-05-09T06:46:07.238Z,45.03
2023-05-09T06:48:33.979Z,45.29
2023-05-09T06:51:00.734Z,44.12
2023-05-09T06:53:27.388Z,44.59
2023-05-09T06:55:54.031Z,43.86
2023-05-09T06:58:24.010Z,44.46
2023-05-09T07:00:50.748Z,43.82
2023-05-09T07:03:17.425Z,43.38
2023-05-09T07:05:44.220Z,45.38
2023-05-09T07:08:10.992Z,43.58
2023-05-09T07:10:38.990Z,45.69
2023-05-09T07:13:06.162Z,45.02
2023-05-09T07:15:41.525Z,45.40
2023-05-09T07:18:09.571Z,45.23
2023-05-09T07:20:36.546Z,44.03
2023-05-09T07:23:06.334Z,46.45
2023-05-09T07:25:34.082Z,44.28
2023-05-09T07:28:00.703Z,44.78
2023-05-09T07:30:27.380Z,45.64
2023-05-09T07:32:54.139Z,46.46
2023-05-09T07:35:20.921Z,44.85
2023-05-09T07:37:47.583Z,46.52
2023-05-09T07:40:14.815Z,45.20
2023-05-09T07:42:41.808Z,44.04
2023-05-09T07:45:08.874Z,43.52
2023-05-09T07:47:35.624Z,44.71
2023-05-09T07:50:02.443Z,45.95
2023-05-09T07:52:29.051Z,44.89
2023-05-09T07:54:55.703Z,45.00
2023-05-09T07:57:22.342Z,44.77
2023-05-09T07:59:49.003Z,44.47
2023-05-09T08:02:15.679Z,44.07
2023-05-09T08:04:42.425Z,44.03
2023-05-09T08:07:09.225Z,45.32
2023-05-09T08:09:35.966Z,44.15
2023-05-09T08:12:02.644Z,43.84
2023-05-09T08:14:29.639Z,43.40
2023-05-09T08:16:56.275Z,43.03
2023-05-09T08:19:23.069Z,41.75
2023-05-09T08:21:49.731Z,42.17
2023-05-09T08:24:16.360Z,41.13
2023-05-09T08:26:43.099Z,41.35
2023-05-09T08:29:09.812Z,41.83
2023-05-09T08:31:39.397Z,40.94
2023-05-09T08:34:06.081Z,40.45
2023-05-09T08:36:32.765Z,41.54
2023-05-09T08:38:59.445Z,40.37
2023-05-09T08:41:26.920Z,41.19
2023-05-09T08:43:54.616Z,40.90
2023-05-09T08:46:36.807Z,39.61
2023-05-09T08:49:05.927Z,40.44
2023-05-09T08:51:33.157Z,40.08
2023-05-09T08:54:00.372Z,39.73
2023-05-09T08:56:27.297Z,41.89
2023-05-09T08:58:57.085Z,40.79
2023-05-09T09:01:24.859Z,41.28
2023-05-09T09:03:52.061Z,40.95
2023-05-09T09:06:20.683Z,40.94
2023-05-09T09:08:49.192Z,39.79
2023-05-09T09:11:17.463Z,38.78
2023-05-09T09:13:48.464Z,39.70
2023-05-09T09:16:20.352Z,39.58
2023-05-09T09:18:47.224Z,40.14
2023-05-09T09:21:16.409Z,40.60
2023-05-09T09:23:44.564Z,39.26
2023-05-09T09:26:11.271Z,38.50
2023-05-09T09:28:37.901Z,37.59
2023-05-09T09:31:23.153Z,39.29
2023-05-09T09:33:50.126Z,37.54
2023-05-09T09:36:20.028Z,38.48
2023-05-09T09:38:46.834Z,38.93
2023-05-09T09:41:13.468Z,38.71
2023-05-09T09:43:45.657Z,37.70
2023-05-09T09:46:14.447Z,36.93
2023-05-09T09:48:46.493Z,38.19
2023-05-09T09:51:13.157Z,37.88
2023-05-09T09:53:46.604Z,38.32
2023-05-09T09:56:14.122Z,38.28
2023-05-09T09:58:40.972Z,37.98
2023-05-09T10:01:12.670Z,38.24
2023-05-09T10:03:44.583Z,39.81
2023-05-09T10:06:15.751Z,39.44
2023-05-09T10:08:45.333Z,38.78
2023-05-09T10:11:12.523Z,38.41
2023-05-09T10:13:39.150Z,39.26
2023-05-09T10:16:08.827Z,39.60
2023-05-09T10:18:36.290Z,37.75
2023-05-09T10:21:10.187Z,38.50
2023-05-09T10:23:38.503Z,38.65
2023-05-09T10:26:26.251Z,39.63
2023-05-09T10:28:55.924Z,38.71
2023-05-09T10:31:27.051Z,39.25
2023-05-09T10:33:58.080Z,40.01
2023-05-09T10:36:25.049Z,41.12
2023-05-09T10:38:54.394Z,40.67
2023-05-09T10:41:22.210Z,40.15
2023-05-09T10:43:49.428Z,39.77
2023-05-09T10:46:16.611Z,40.67
2023-05-09T10:48:47.759Z,40.41
2023-05-09T10:51:14.414Z,41.28
2023-05-09T10:53:41.906Z,39.29
2023-05-09T10:56:08.541Z,39.92
2023-05-09T10:58:35.830Z,39.95
2023-05-09T11:01:04.722Z,40.09
2023-05-09T11:03:54.287Z,39.89
2023-05-09T11:06:41.336Z,41.34
2023-05-09T11:09:37.578Z,39.46
2023-05-09T11:12:07.523Z,39.20
2023-05-09T11:14:50.475Z,39.22
2023-05-09T11:17:23.442Z,40.22
2023-05-09T11:19:50.180Z,40.13
2023-05-09T11:22:21.583Z,40.11
2023-05-09T11:24:53.234Z,40.43
2023-05-09T11:27:26.540Z,40.51
2023-05-09T11:29:58.600Z,40.29
2023-05-09T11:32:31.934Z,40.45
2023-05-09T11:35:09.392Z,40.52
2023-05-09T11:37:59.100Z,43.07
2023-05-09T11:40:27.262Z,40.59
2023-05-09T11:42:59.032Z,40.55
2023-05-09T11:45:29.223Z,39.80
2023-05-09T11:47:56.462Z,40.42
2023-05-09T11:50:23.774Z,40.95
2023-05-09T11:52:51.242Z,41.03
2023-05-09T11:55:19.963Z,40.55
2023-05-09T11:57:48.768Z,41.00
2023-05-09T12:00:19.749Z,40.16
2023-05-09T12:02:46.858Z,40.91
2023-05-09T12:05:15.746Z,40.06
2023-05-09T12:07:42.964Z,40.95
2023-05-09T12:10:11.267Z,40.73
2023-05-09T12:12:43.819Z,41.11
2023-05-09T12:15:11.412Z,40.06
2023-05-09T12:17:38.388Z,41.24
2023-05-09T12:20:05.700Z,40.77
2023-05-09T12:22:36.386Z,41.18
2023-05-09T12:25:13.152Z,40.68
2023-05-09T12:27:43.839Z,41.52
2023-05-09T12:30:12.092Z,41.50
2023-05-09T12:32:39.484Z,42.32
2023-05-09T12:35:10.787Z,42.14
2023-05-09T12:37:37.857Z,42.82
2023-05-09T12:40:11.571Z,43.20
2023-05-09T12:42:38.921Z,42.50
2023-05-09T12:45:08.688Z,41.69
2023-05-09T12:47:35.590Z,41.53
2023-05-09T12:50:03.877Z,42.44
2023-05-09T12:52:54.495Z,43.29
2023-05-09T12:55:31.874Z,42.35
2023-05-09T12:58:03.036Z,41.49
2023-05-09T13:00:42.053Z,41.61
2023-05-09T13:03:23.834Z,42.41
2023-05-09T13:06:01.139Z,42.48
2023-05-09T13:08:28.862Z,42.06
2023-05-09T13:11:08.023Z,42.92
2023-05-09T13:13:42.214Z,42.41
2023-05-09T13:19:02.270Z,42.24
2023-05-09T13:21:34.603Z,41.44
2023-05-09T13:24:01.638Z,42.15
2023-05-09T13:26:29.287Z,42.22
2023-05-09T13:28:57.350Z,42.47
2023-05-09T13:31:24.572Z,42.72
2023-05-09T13:33:52.786Z,41.85
2023-05-09T13:36:19.505Z,42.49
2023-05-09T13:38:46.123Z,41.54
2023-05-09T13:41:13.888Z,41.76
2023-05-09T13:43:40.561Z,41.89
2023-05-09T13:46:07.224Z,42.32
2023-05-09T13:48:36.940Z,41.80
2023-05-09T13:51:03.889Z,40.82
2023-05-09T13:53:30.621Z,40.61
2023-05-09T13:55:57.317Z,40.81
2023-05-09T13:58:24.206Z,40.71
2023-05-09T14:00:50.838Z,40.69
2023-05-09T14:03:17.556Z,41.92
2023-05-09T14:05:44.444Z,42.76
2023-05-09T14:08:11.133Z,43.98
2023-05-09T14:10:37.834Z,43.46
2023-05-09T14:13:04.495Z,43.97
2023-05-09T14:15:31.470Z,43.65
2023-05-09T14:17:58.237Z,42.88
2023-05-09T14:20:25.496Z,43.22
2023-05-09T14:22:52.202Z,41.59
2023-05-09T14:25:19.062Z,42.23
2023-05-09T14:27:45.743Z,42.52
2023-05-09T14:30:13.084Z,41.51
2023-05-09T14:32:40.015Z,41.87
2023-05-09T14:35:07.038Z,41.04
2023-05-09T14:37:33.761Z,41.15
2023-05-09T14:40:00.547Z,40.84
2023-05-09T14:42:27.372Z,41.69
2023-05-09T14:44:54.210Z,40.07
2023-05-09T14:47:21.111Z,41.00
2023-05-09T14:49:47.736Z,41.32
2023-05-09T14:52:16.924Z,42.04
2023-05-09T14:54:43.617Z,42.85
2023-05-09T14:57:10.415Z,41.41
2023-05-09T14:59:37.389Z,41.19
2023-05-09T15:02:04.091Z,42.73
2023-05-09T15:04:31.094Z,42.81
2023-05-09T15:06:58.010Z,42.38
2023-05-09T15:09:24.702Z,43.27
2023-05-09T15:11:51.495Z,42.83
2023-05-09T15:14:18.104Z,41.85
2023-05-09T15:16:44.908Z,41.88
2023-05-09T15:19:11.729Z,41.91
2023-05-09T15:21:40.175Z,42.26
2023-05-09T15:24:07.261Z,41.46
2023-05-09T15:26:34.089Z,40.79
2023-05-09T15:29:00.836Z,40.81
2023-05-09T15:31:32.202Z,40.96
2023-05-09T15:33:59.887Z,42.30
2023-05-09T15:36:28.776Z,42.02
2023-05-09T15:38:55.579Z,42.72
2023-05-09T15:41:25.371Z,41.77
2023-05-09T15:43:52.339Z,42.62
2023-05-09T15:46:19.258Z,41.98
2023-05-09T15:48:46.084Z,41.60
2023-05-09T15:51:12.832Z,41.42
2023-05-09T15:53:39.697Z,42.27
2023-05-09T15:56:07.701Z,43.35
2023-05-09T15:58:34.614Z,42.52
2023-05-09T16:01:04.430Z,43.02
2023-05-09T16:03:31.293Z,43.90
2023-05-09T16:05:58.742Z,45.93
2023-05-09T16:08:25.617Z,46.52
2023-05-09T16:10:52.347Z,47.29
2023-05-09T16:13:19.126Z,47.43
2023-05-09T16:15:46.084Z,47.50
2023-05-09T16:18:15.434Z,47.61
2023-05-09T16:20:42.142Z,47.23
2023-05-09T16:23:10.164Z,47.51
2023-05-09T16:25:36.898Z,47.36
2023-05-09T16:28:03.780Z,47.66
2023-05-09T16:30:30.491Z,48.02
2023-05-09T16:32:57.150Z,46.91
2023-05-09T16:35:23.843Z,46.65
2023-05-09T16:37:50.863Z,47.32
2023-05-09T16:40:18.793Z,46.95
2023-05-09T16:42:45.617Z,46.82
2023-05-09T16:45:12.323Z,47.05
2023-05-09T16:47:39.046Z,46.21
2023-05-09T16:50:09.390Z,47.11
2023-05-09T16:52:36.071Z,47.37
2023-05-09T16:55:02.825Z,48.02
2023-05-09T16:57:29.637Z,47.05
2023-05-09T16:59:56.511Z,47.03
2023-05-09T17:02:23.335Z,48.32
2023-05-09T17:04:50.305Z,46.55
2023-05-09T17:07:17.086Z,48.38
2023-05-09T17:09:43.775Z,47.70
2023-05-09T17:12:10.608Z,47.98
2023-05-09T17:14:37.364Z,47.74
2023-05-09T17:17:03.996Z,47.88
2023-05-09T17:19:30.724Z,48.34
2023-05-09T17:21:57.338Z,47.49
2023-05-09T17:24:24.349Z,47.81
2023-05-09T17:26:51.155Z,48.06
2023-05-09T17:29:17.833Z,48.13
2023-05-09T17:31:44.529Z,48.25
2023-05-09T17:34:11.432Z,47.93
2023-05-09T17:36:38.064Z,48.28
2023-05-09T17:39:04.959Z,49.20
2023-05-09T17:41:31.627Z,49.48
2023-05-09T17:43:58.298Z,49.03
2023-05-09T17:46:25.032Z,50.37
2023-05-09T17:48:51.934Z,50.48
2023-05-09T17:51:18.661Z,50.10
2023-05-09T17:53:45.315Z,50.78
2023-05-09T17:56:12.030Z,49.53
2023-05-09T17:58:38.836Z,49.15
2023-05-09T18:01:06.223Z,50.31
2023-05-09T18:03:33.093Z,49.29
2023-05-09T18:05:59.936Z,49.78
2023-05-09T18:08:26.600Z,49.84
2023-05-09T18:10:53.864Z,48.93
2023-05-09T18:13:21.267Z,48.97
2023-05-09T18:15:48.588Z,48.56
2023-05-09T18:18:15.247Z,49.31
2023-05-09T18:20:42.263Z,49.54
2023-05-09T18:23:09.204Z,49.93
2023-05-09T18:25:35.868Z,50.16
2023-05-09T18:28:16.791Z,48.82
2023-05-09T18:30:48.633Z,49.98
2023-05-09T18:33:15.562Z,49.09
2023-05-09T18:35:42.450Z,50.16
2023-05-09T18:38:09.226Z,49.64
2023-05-09T18:40:35.880Z,49.95
2023-05-09T18:43:05.421Z,49.68
2023-05-09T18:45:32.369Z,49.34
2023-05-09T18:47:59.455Z,50.00
2023-05-09T18:50:26.273Z,50.17
2023-05-09T18:52:53.018Z,50.33
2023-05-09T18:55:19.889Z,49.94
2023-05-09T18:57:46.613Z,49.41
2023-05-09T19:00:15.772Z,50.34
2023-05-09T19:02:42.863Z,50.64
2023-05-09T19:05:09.640Z,49.90
2023-05-09T19:07:36.874Z,50.72
2023-05-09T19:10:04.207Z,51.38
2023-05-09T19:12:31.827Z,50.68
2023-05-09T19:14:58.589Z,50.48
2023-05-09T19:17:25.432Z,51.29
2023-05-09T19:19:52.306Z,52.03
2023-05-09T19:22:19.203Z,51.63
2023-05-09T19:24:45.902Z,52.27
2023-05-09T19:27:12.558Z,51.53
2023-05-09T19:29:39.249Z,52.41
2023-05-09T19:32:06.014Z,52.29
2023-05-09T19:34:32.614Z,51.70
2023-05-09T19:36:59.286Z,51.98
2023-05-09T19:39:26.021Z,51.52
2023-05-09T19:41:56.163Z,52.72
2023-05-09T19:44:26.292Z,52.86
2023-05-09T19:46:53.134Z,51.63
2023-05-09T19:49:19.799Z,52.66
2023-05-09T19:51:46.597Z,51.82
2023-05-09T19:54:13.515Z,52.13
2023-05-09T19:56:42.819Z,52.68
2023-05-09T19:59:09.510Z,52.79
2023-05-09T20:01:36.242Z,52.64
2023-05-09T20:04:02.968Z,52.52
2023-05-09T20:06:29.830Z,52.84
2023-05-09T20:08:56.427Z,53.46
2023-05-09T20:11:23.414Z,53.74
2023-05-09T20:13:50.210Z,54.24
2023-05-09T20:16:16.897Z,53.74
2023-05-09T20:18:43.831Z,53.85
2023-05-09T20:21:10.826Z,53.66
2023-05-09T20:23:37.599Z,54.44
2023-05-09T20:26:04.232Z,53.88
2023-05-09T20:28:30.974Z,54.42
2023-05-09T20:30:58.120Z,54.24
2023-05-09T20:33:24.930Z,54.99
2023-05-09T20:35:51.527Z,54.57
2023-05-09T20:38:18.182Z,56.14
2023-05-09T20:40:45.124Z,56.25
2023-05-09T20:43:11.835Z,56.48
2023-05-09T20:45:38.714Z,55.72
2023-05-09T20:48:06.252Z,55.58
2023-05-09T20:50:33.051Z,55.38
2023-05-09T20:52:59.855Z,56.68
2023-05-09T20:55:29.441Z,56.96
2023-05-09T20:57:56.132Z,56.01
2023-05-09T21:00:22.927Z,57.60
2023-05-09T21:02:52.654Z,57.88
2023-05-09T21:05:19.879Z,57.28
2023-05-09T21:07:46.515Z,57.48
2023-05-09T21:10:13.701Z,57.66
2023-05-09T21:12:40.543Z,57.09
2023-05-09T21:15:08.159Z,58.48
2023-05-09T21:17:34.911Z,57.95
2023-05-09T21:20:01.711Z,57.68
2023-05-09T21:22:31.571Z,58.52
2023-05-09T21:24:58.261Z,58.95
2023-05-09T21:27:25.211Z,58.69
2023-05-09T21:29:55.884Z,58.85
2023-05-09T21:32:22.637Z,59.41
2023-05-09T21:34:49.315Z,57.76
2023-05-09T21:37:16.271Z,58.53
2023-05-09T21:39:42.952Z,57.88
2023-05-09T21:42:09.973Z,57.91
2023-05-09T21:44:39.451Z,57.55
2023-05-09T21:47:06.223Z,57.62
2023-05-09T21:49:33.021Z,57.45
2023-05-09T21:51:59.937Z,57.80
2023-05-09T21:54:26.666Z,58.32
2023-05-09T21:56:53.423Z,59.39
2023-05-09T21:59:22.039Z,57.71
2023-05-09T22:01:49.718Z,57.99
2023-05-09T22:04:16.438Z,58.10
2023-05-09T22:06:43.218Z,57.66
2023-05-09T22:09:11.208Z,58.11
2023-05-09T22:11:37.873Z,58.51
2023-05-09T22:14:04.748Z,58.81
2023-05-09T22:16:34.450Z,57.60
2023-05-09T22:19:01.215Z,58.16
2023-05-09T22:21:28.228Z,57.71
2023-05-09T22:23:54.915Z,57.68
2023-05-09T22:26:25.648Z,57.18
2023-05-09T22:28:52.468Z,56.76
2023-05-09T22:31:19.248Z,57.04
2023-05-09T22:33:46.224Z,57.32
2023-05-09T22:36:13.033Z,56.70
2023-05-09T22:38:39.960Z,57.89
2023-05-09T22:41:06.638Z,57.21
2023-05-09T22:43:38.800Z,57.16
2023-05-09T22:46:06.653Z,57.51
2023-05-09T22:48:33.559Z,56.87
2023-05-09T22:51:00.280Z,57.30
2023-05-09T22:53:26.887Z,57.14
2023-05-09T22:55:56.525Z,57.32
2023-05-09T22:58:23.210Z,57.41
2023-05-09T23:00:52.376Z,57.92
2023-05-09T23:03:19.257Z,57.88
2023-05-09T23:05:45.958Z,58.27
2023-05-09T23:08:12.700Z,58.32
2023-05-09T23:10:39.400Z,58.47
2023-05-09T23:13:06.128Z,58.65
2023-05-09T23:15:33.020Z,58.71
2023-05-09T23:17:59.745Z,58.62
2023-05-09T23:20:26.648Z,58.69
2023-05-09T23:22:56.255Z,58.82
2023-05-09T23:25:22.935Z,58.93
2023-05-09T23:27:54.510Z,58.66
2023-05-09T23:30:21.216Z,59.58
2023-05-09T23:32:47.949Z,59.00
2023-05-09T23:35:14.772Z,59.34
2023-05-09T23:37:41.517Z,59.60
2023-05-09T23:40:08.774Z,59.94
2023-05-09T23:42:37.791Z,59.96
2023-05-09T23:45:05.262Z,60.32
2023-05-09T23:47:32.099Z,60.57
2023-05-09T23:50:01.428Z,60.57
2023-05-09T23:52:28.087Z,61.09
2023-05-09T23:54:54.898Z,61.23
2023-05-09T23:57:21.619Z,61.19
2023-05-09T23:59:49.808Z,61.54
